sensor_id;sensor_type;location;lat;lon;timestamp;pressure;altitude;pressure_sealevel;temperature;humidity
21086;BME280;34247;50.064;19.970;2023-04-07T00:00:53;99229.09;;;3.62;98.67
21086;BME280;34247;50.064;19.970;2023-04-07T00:02:19;99232.56;;;3.62;98.68
21086;BME280;34247;50.064;19.970;2023-04-07T00:03:33;99234.34;;;3.62;98.77
21086;BME280;34247;50.064;19.970;2023-04-07T00:04:44;99226.59;;;3.58;98.36
21086;BME280;34247;50.064;19.970;2023-04-07T00:05:53;99229.22;;;3.58;98.79
21086;BME280;34247;50.064;19.970;2023-04-07T00:06:57;99230.16;;;3.57;98.60
21086;BME280;34247;50.064;19.970;2023-04-07T00:08:09;99226.75;;;3.55;98.89
21086;BME280;34247;50.064;19.970;2023-04-07T00:09:34;99227.91;;;3.48;98.89
21086;BME280;34247;50.064;19.970;2023-04-07T00:10:49;99225.28;;;3.48;99.69
21086;BME280;34247;50.064;19.970;2023-04-07T00:11:57;99217.28;;;3.51;99.24
21086;BME280;34247;50.064;19.970;2023-04-07T00:13:05;99215.50;;;3.52;99.30
21086;BME280;34247;50.064;19.970;2023-04-07T00:14:16;99220.56;;;3.56;99.70
21086;BME280;34247;50.064;19.970;2023-04-07T00:15:24;99217.19;;;3.53;99.43
21086;BME280;34247;50.064;19.970;2023-04-07T00:16:34;99217.94;;;3.56;99.10
21086;BME280;34247;50.064;19.970;2023-04-07T00:17:57;99220.03;;;3.48;99.48
21086;BME280;34247;50.064;19.970;2023-04-07T00:19:11;99212.88;;;3.52;99.53
21086;BME280;34247;50.064;19.970;2023-04-07T00:20:18;99219.97;;;3.50;99.62
21086;BME280;34247;50.064;19.970;2023-04-07T00:21:44;99220.03;;;3.48;99.72
21086;BME280;34247;50.064;19.970;2023-04-07T00:22:55;99220.75;;;3.52;100.00
21086;BME280;34247;50.064;19.970;2023-04-07T00:24:06;99221.50;;;3.55;99.71
21086;BME280;34247;50.064;19.970;2023-04-07T00:25:16;99211.00;;;3.55;99.35
21086;BME280;34247;50.064;19.970;2023-04-07T00:26:22;99215.41;;;3.55;99.60
21086;BME280;34247;50.064;19.970;2023-04-07T00:27:47;99203.13;;;3.55;99.57
21086;BME280;34247;50.064;19.970;2023-04-07T00:28:52;99211.94;;;3.53;99.47
21086;BME280;34247;50.064;19.970;2023-04-07T00:30:12;99212.88;;;3.52;100.00
21086;BME280;34247;50.064;19.970;2023-04-07T00:31:21;99214.66;;;3.51;100.00
21086;BME280;34247;50.064;19.970;2023-04-07T00:32:34;99212.56;;;3.59;100.00
21086;BME280;34247;50.064;19.970;2023-04-07T00:33:45;99207.31;;;3.59;99.75
21086;BME280;34247;50.064;19.970;2023-04-07T00:34:56;99205.75;;;3.55;100.00
21086;BME280;34247;50.064;19.970;2023-04-07T00:36:13;99203.91;;;3.57;99.81
21086;BME280;34247;50.064;19.970;2023-04-07T00:37:19;99203.16;;;3.54;99.98
21086;BME280;34247;50.064;19.970;2023-04-07T00:38:27;99207.31;;;3.59;99.99
21086;BME280;34247;50.064;19.970;2023-04-07T00:39:34;99205.53;;;3.60;99.94
21086;BME280;34247;50.064;19.970;2023-04-07T00:41:07;99199.31;;;3.63;99.79
21086;BME280;34247;50.064;19.970;2023-04-07T00:42:17;99200.97;;;3.65;99.75
21086;BME280;34247;50.064;19.970;2023-04-07T00:43:24;99201.88;;;3.64;99.37
21086;BME280;34247;50.064;19.970;2023-04-07T00:44:30;99201.81;;;3.66;99.49
21086;BME280;34247;50.064;19.970;2023-04-07T00:45:42;99205.34;;;3.65;99.57
21086;BME280;34247;50.064;19.970;2023-04-07T00:46:56;99199.03;;;3.69;99.46
21086;BME280;34247;50.064;19.970;2023-04-07T00:48:13;99199.84;;;3.71;99.30
21086;BME280;34247;50.064;19.970;2023-04-07T00:49:19;99199.97;;;3.68;99.49
21086;BME280;34247;50.064;19.970;2023-04-07T00:50:35;99193.09;;;3.65;98.94
21086;BME280;34247;50.064;19.970;2023-04-07T00:51:49;99198.34;;;3.65;99.06
21086;BME280;34247;50.064;19.970;2023-04-07T00:53:01;99192.75;;;3.73;99.00
21086;BME280;34247;50.064;19.970;2023-04-07T00:54:11;99195.38;;;3.73;98.89
21086;BME280;34247;50.064;19.970;2023-04-07T00:55:22;99202.16;;;3.78;98.75
21086;BME280;34247;50.064;19.970;2023-04-07T00:56:26;99199.47;;;3.80;98.79
21086;BME280;34247;50.064;19.970;2023-04-07T00:57:30;99197.75;;;3.79;98.43
21086;BME280;34247;50.064;19.970;2023-04-07T00:58:34;99197.75;;;3.79;98.30
21086;BME280;34247;50.064;19.970;2023-04-07T00:59:38;99198.16;;;3.70;98.67
21086;BME280;34247;50.064;19.970;2023-04-07T01:00:48;99193.94;;;3.66;99.28
21086;BME280;34247;50.064;19.970;2023-04-07T01:02:11;99192.75;;;3.73;99.32
21086;BME280;34247;50.064;19.970;2023-04-07T01:03:34;99189.72;;;3.62;99.04
21086;BME280;34247;50.064;19.970;2023-04-07T01:04:54;99190.38;;;3.67;99.43
21086;BME280;34247;50.064;19.970;2023-04-07T01:06:01;99190.47;;;3.65;99.28
21086;BME280;34247;50.064;19.970;2023-04-07T01:07:11;99189.63;;;3.65;99.37
21086;BME280;34247;50.064;19.970;2023-04-07T01:10:02;99190.38;;;3.67;99.40
21086;BME280;34247;50.064;19.970;2023-04-07T01:11:59;99197.28;;;3.69;99.29
21086;BME280;34247;50.064;19.970;2023-04-07T01:13:47;99196.25;;;3.73;98.88
21086;BME280;34247;50.064;19.970;2023-04-07T01:15:07;99196.31;;;3.72;99.02
21086;BME280;34247;50.064;19.970;2023-04-07T01:16:34;99203.41;;;3.70;98.69
21086;BME280;34247;50.064;19.970;2023-04-07T01:17:57;99206.81;;;3.72;98.87
21086;BME280;34247;50.064;19.970;2023-04-07T01:20:07;99199.97;;;3.68;98.87
21086;BME280;34247;50.064;19.970;2023-04-07T01:21:27;99200.97;;;3.65;99.27
21086;BME280;34247;50.064;19.970;2023-04-07T01:22:58;99202.53;;;3.69;98.92
21086;BME280;34247;50.064;19.970;2023-04-07T01:24:38;99199.00;;;3.70;98.92
21086;BME280;34247;50.064;19.970;2023-04-07T01:26:29;99191.38;;;3.64;99.09
21086;BME280;34247;50.064;19.970;2023-04-07T01:29:49;99196.69;;;3.63;98.76
21086;BME280;34247;50.064;19.970;2023-04-07T01:30:57;99192.34;;;3.62;98.79
21086;BME280;34247;50.064;19.970;2023-04-07T01:32:10;99199.44;;;3.59;99.14
21086;BME280;34247;50.064;19.970;2023-04-07T01:33:33;99192.31;;;3.63;99.24
21086;BME280;34247;50.064;19.970;2023-04-07T01:34:59;99180.88;;;3.64;99.19
21086;BME280;34247;50.064;19.970;2023-04-07T01:36:24;99177.44;;;3.62;99.61
21086;BME280;34247;50.064;19.970;2023-04-07T01:37:33;99181.72;;;3.65;99.77
21086;BME280;34247;50.064;19.970;2023-04-07T01:38:46;99179.88;;;3.67;99.66
21086;BME280;34247;50.064;19.970;2023-04-07T01:40:11;99167.75;;;3.64;98.96
21086;BME280;34247;50.064;19.970;2023-04-07T01:41:22;99166.06;;;3.63;99.14
21086;BME280;34247;50.064;19.970;2023-04-07T01:42:40;99162.38;;;3.67;99.00
21086;BME280;34247;50.064;19.970;2023-04-07T01:44:00;99160.81;;;3.63;99.43
21086;BME280;34247;50.064;19.970;2023-04-07T01:45:10;99164.91;;;3.69;98.96
21086;BME280;34247;50.064;19.970;2023-04-07T01:46:17;99157.03;;;3.69;99.06
21086;BME280;34247;50.064;19.970;2023-04-07T01:47:32;99154.41;;;3.69;98.77
21086;BME280;34247;50.064;19.970;2023-04-07T01:48:48;99149.13;;;3.70;98.90
21086;BME280;34247;50.064;19.970;2023-04-07T01:50:13;99156.09;;;3.71;98.87
21086;BME280;34247;50.064;19.970;2023-04-07T01:51:29;99155.94;;;3.74;98.25
21086;BME280;34247;50.064;19.970;2023-04-07T01:52:53;99156.94;;;3.72;98.53
21086;BME280;34247;50.064;19.970;2023-04-07T01:54:16;99160.66;;;3.66;98.51
21086;BME280;34247;50.064;19.970;2023-04-07T01:55:23;99165.22;;;3.63;98.29
21086;BME280;34247;50.064;19.970;2023-04-07T01:56:28;99170.63;;;3.58;99.02
21086;BME280;34247;50.064;19.970;2023-04-07T01:58:04;99182.06;;;3.57;99.01
21086;BME280;34247;50.064;19.970;2023-04-07T01:59:17;99179.50;;;3.55;99.27
21086;BME280;34247;50.064;19.970;2023-04-07T02:00:32;99180.34;;;3.56;99.36
21086;BME280;34247;50.064;19.970;2023-04-07T02:01:40;99183.94;;;3.53;99.53
21086;BME280;34247;50.064;19.970;2023-04-07T02:03:06;99184.59;;;3.58;99.50
21086;BME280;34247;50.064;19.970;2023-04-07T02:06:08;99183.59;;;3.63;99.34
21086;BME280;34247;50.064;19.970;2023-04-07T02:07:41;99183.75;;;3.58;99.08
21086;BME280;34247;50.064;19.970;2023-04-07T02:09:09;99184.84;;;3.52;99.86
21086;BME280;34247;50.064;19.970;2023-04-07T02:10:23;99172.78;;;3.48;100.00
21086;BME280;34247;50.064;19.970;2023-04-07T02:11:49;99176.06;;;3.53;100.00
21086;BME280;34247;50.064;19.970;2023-04-07T02:13:20;99180.47;;;3.53;100.00
21086;BME280;34247;50.064;19.970;2023-04-07T02:14:28;99169.91;;;3.54;100.00
21086;BME280;34247;50.064;19.970;2023-04-07T02:15:36;99169.72;;;3.59;100.00
21086;BME280;34247;50.064;19.970;2023-04-07T02:17:06;99168.69;;;3.63;100.00
21086;BME280;34247;50.064;19.970;2023-04-07T02:18:18;99168.72;;;3.62;100.00
21086;BME280;34247;50.064;19.970;2023-04-07T02:19:52;99170.81;;;3.53;100.00
21086;BME280;34247;50.064;19.970;2023-04-07T02:20:59;99165.31;;;3.59;100.00
21086;BME280;34247;50.064;19.970;2023-04-07T02:22:23;99167.63;;;3.67;100.00
21086;BME280;34247;50.064;19.970;2023-04-07T02:23:34;99165.22;;;3.63;99.78
21086;BME280;34247;50.064;19.970;2023-04-07T02:24:50;99168.63;;;3.65;99.95
21086;BME280;34247;50.064;19.970;2023-04-07T02:26:04;99173.66;;;3.69;99.79
21086;BME280;34247;50.064;19.970;2023-04-07T02:27:21;99161.41;;;3.70;99.32
21086;BME280;34247;50.064;19.970;2023-04-07T02:28:43;99171.09;;;3.68;99.57
21086;BME280;34247;50.064;19.970;2023-04-07T02:29:52;99167.75;;;3.64;99.62
21086;BME280;34247;50.064;19.970;2023-04-07T02:30:59;99167.84;;;3.63;99.73
21086;BME280;34247;50.064;19.970;2023-04-07T02:32:27;99170.25;;;3.67;99.65
21086;BME280;34247;50.064;19.970;2023-04-07T02:33:39;99164.91;;;3.69;99.69
21086;BME280;34247;50.064;19.970;2023-04-07T02:34:46;99165.06;;;3.66;99.87
21086;BME280;34247;50.064;19.970;2023-04-07T02:35:52;99159.88;;;3.64;99.80
21086;BME280;34247;50.064;19.970;2023-04-07T02:37:21;99163.22;;;3.68;99.85
21086;BME280;34247;50.064;19.970;2023-04-07T02:39:01;99154.41;;;3.69;99.64
21086;BME280;34247;50.064;19.970;2023-04-07T02:40:27;99164.13;;;3.67;99.92
21086;BME280;34247;50.064;19.970;2023-04-07T02:41:51;99154.16;;;3.54;100.00
21086;BME280;34247;50.064;19.970;2023-04-07T02:43:09;99165.53;;;3.55;100.00
21086;BME280;34247;50.064;19.970;2023-04-07T02:44:17;99164.47;;;3.59;100.00
21086;BME280;34247;50.064;19.970;2023-04-07T02:46:57;99158.38;;;3.58;100.00
21086;BME280;34247;50.064;19.970;2023-04-07T02:48:08;99160.91;;;3.60;100.00
21086;BME280;34247;50.064;19.970;2023-04-07T02:49:12;99159.06;;;3.62;100.00
21086;BME280;34247;50.064;19.970;2023-04-07T02:50:26;99157.34;;;3.63;100.00
21086;BME280;34247;50.064;19.970;2023-04-07T02:51:38;99165.22;;;3.63;100.00
21086;BME280;34247;50.064;19.970;2023-04-07T02:52:55;99159.97;;;3.63;100.00
21086;BME280;34247;50.064;19.970;2023-04-07T02:54:22;99159.81;;;3.66;100.00
21086;BME280;34247;50.064;19.970;2023-04-07T02:55:42;99154.56;;;3.66;100.00
21086;BME280;34247;50.064;19.970;2023-04-07T02:56:46;99155.28;;;3.69;100.00
21086;BME280;34247;50.064;19.970;2023-04-07T02:57:50;99162.19;;;3.72;100.00
21086;BME280;34247;50.064;19.970;2023-04-07T02:58:54;99154.38;;;3.70;100.00
21086;BME280;34247;50.064;19.970;2023-04-07T02:59:58;99160.53;;;3.69;100.00
21086;BME280;34247;50.064;19.970;2023-04-07T03:01:02;99163.22;;;3.68;100.00
21086;BME280;34247;50.064;19.970;2023-04-07T03:02:05;99161.34;;;3.71;100.00
21086;BME280;34247;50.064;19.970;2023-04-07T03:03:10;99156.72;;;3.76;100.00
21086;BME280;34247;50.064;19.970;2023-04-07T03:04:14;99158.31;;;3.80;99.96
21086;BME280;34247;50.064;19.970;2023-04-07T03:05:18;99154.97;;;3.77;99.80
21086;BME280;34247;50.064;19.970;2023-04-07T03:06:22;99153.13;;;3.79;99.79
21086;BME280;34247;50.064;19.970;2023-04-07T03:07:26;99152.47;;;3.74;99.47
21086;BME280;34247;50.064;19.970;2023-04-07T03:08:30;99145.91;;;3.64;100.00
21086;BME280;34247;50.064;19.970;2023-04-07T03:09:34;99152.94;;;3.63;100.00
21086;BME280;34247;50.064;19.970;2023-04-07T03:10:44;99150.91;;;3.70;100.00
21086;BME280;34247;50.064;19.970;2023-04-07T03:11:57;99153.47;;;3.71;99.96
21086;BME280;34247;50.064;19.970;2023-04-07T03:13:11;99143.22;;;3.65;100.00
21086;BME280;34247;50.064;19.970;2023-04-07T03:14:17;99140.66;;;3.64;100.00
21086;BME280;34247;50.064;19.970;2023-04-07T03:15:40;99148.13;;;3.73;100.00
21086;BME280;34247;50.064;19.970;2023-04-07T03:17:08;99136.00;;;3.70;100.00
21086;BME280;34247;50.064;19.970;2023-04-07T03:18:29;99141.97;;;3.74;100.00
21086;BME280;34247;50.064;19.970;2023-04-07T03:19:33;99143.22;;;3.65;100.00
21086;BME280;34247;50.064;19.970;2023-04-07T03:20:39;99144.06;;;3.66;100.00
21086;BME280;34247;50.064;19.970;2023-04-07T03:22:01;99150.41;;;3.60;100.00
21086;BME280;34247;50.064;19.970;2023-04-07T03:23:13;99144.13;;;3.64;100.00
21086;BME280;34247;50.064;19.970;2023-04-07T03:24:26;99149.06;;;3.72;100.00
21086;BME280;34247;50.064;19.970;2023-04-07T03:25:48;99150.69;;;3.74;100.00
21086;BME280;34247;50.064;19.970;2023-04-07T03:27:06;99142.75;;;3.76;100.00
21086;BME280;34247;50.064;19.970;2023-04-07T03:28:20;99138.66;;;3.69;100.00
21086;BME280;34247;50.064;19.970;2023-04-07T03:29:29;99141.97;;;3.74;100.00
21086;BME280;34247;50.064;19.970;2023-04-07T03:30:48;99135.69;;;3.78;100.00
21086;BME280;34247;50.064;19.970;2023-04-07T03:32:04;99139.16;;;3.78;100.00
21086;BME280;34247;50.064;19.970;2023-04-07T03:33:10;99150.50;;;3.79;100.00
21086;BME280;34247;50.064;19.970;2023-04-07T03:34:21;99144.47;;;3.77;100.00
21086;BME280;34247;50.064;19.970;2023-04-07T03:35:45;99145.19;;;3.80;99.73
21086;BME280;34247;50.064;19.970;2023-04-07T03:36:55;99155.59;;;3.82;99.72
21086;BME280;34247;50.064;19.970;2023-04-07T03:38:15;99153.66;;;3.87;99.83
21086;BME280;34247;50.064;19.970;2023-04-07T03:39:27;99155.34;;;3.88;99.43
21086;BME280;34247;50.064;19.970;2023-04-07T03:40:55;99154.56;;;3.86;99.53
21086;BME280;34247;50.064;19.970;2023-04-07T03:42:21;99166.00;;;3.85;99.42
21086;BME280;34247;50.064;19.970;2023-04-07T03:43:43;99163.31;;;3.86;99.23
21086;BME280;34247;50.064;19.970;2023-04-07T03:45:15;99160.59;;;3.88;99.28
21086;BME280;34247;50.064;19.970;2023-04-07T03:46:33;99162.56;;;3.83;99.03
21086;BME280;34247;50.064;19.970;2023-04-07T03:47:44;99163.41;;;3.83;99.29
21086;BME280;34247;50.064;19.970;2023-04-07T03:48:54;99163.38;;;3.85;99.12
21086;BME280;34247;50.064;19.970;2023-04-07T03:50:02;99161.69;;;3.84;99.11
21086;BME280;34247;50.064;19.970;2023-04-07T03:51:12;99157.19;;;3.86;99.22
21086;BME280;34247;50.064;19.970;2023-04-07T03:52:35;99149.59;;;3.80;99.63
21086;BME280;34247;50.064;19.970;2023-04-07T03:53:52;99156.53;;;3.81;99.69
21086;BME280;34247;50.064;19.970;2023-04-07T03:54:59;99153.66;;;3.87;99.81
21086;BME280;34247;50.064;19.970;2023-04-07T03:56:22;99155.34;;;3.88;99.83
21086;BME280;34247;50.064;19.970;2023-04-07T03:57:37;99155.25;;;3.91;99.32
21086;BME280;34247;50.064;19.970;2023-04-07T03:58:43;99163.13;;;3.91;99.17
21086;BME280;34247;50.064;19.970;2023-04-07T03:59:50;99164.81;;;3.92;99.08
21086;BME280;34247;50.064;19.970;2023-04-07T04:00:54;99167.44;;;3.92;99.17
21086;BME280;34247;50.064;19.970;2023-04-07T04:02:08;99165.59;;;3.94;99.33
21086;BME280;34247;50.064;19.970;2023-04-07T04:03:18;99165.44;;;3.97;98.95
21086;BME280;34247;50.064;19.970;2023-04-07T04:04:34;99168.03;;;3.99;98.76
21086;BME280;34247;50.064;19.970;2023-04-07T04:05:41;99169.16;;;3.93;98.79
21086;BME280;34247;50.064;19.970;2023-04-07T04:06:51;99176.88;;;3.96;98.85
21086;BME280;34247;50.064;19.970;2023-04-07T04:08:03;99174.25;;;3.96;98.86
21086;BME280;34247;50.064;19.970;2023-04-07T04:09:14;99172.47;;;3.97;98.53
21086;BME280;34247;50.064;19.970;2023-04-07T04:10:24;99176.94;;;3.95;98.51
21086;BME280;34247;50.064;19.970;2023-04-07T04:11:38;99173.66;;;3.90;98.84
21086;BME280;34247;50.064;19.970;2023-04-07T04:12:50;99177.94;;;3.92;98.98
21086;BME280;34247;50.064;19.970;2023-04-07T04:13:59;99178.91;;;3.90;99.13
21086;BME280;34247;50.064;19.970;2023-04-07T04:15:17;99180.69;;;3.89;98.96
21086;BME280;34247;50.064;19.970;2023-04-07T04:16:26;99179.72;;;3.92;98.84
21086;BME280;34247;50.064;19.970;2023-04-07T04:17:39;99178.97;;;3.88;99.21
21086;BME280;34247;50.064;19.970;2023-04-07T04:19:03;99180.09;;;3.82;99.68
21086;BME280;34247;50.064;19.970;2023-04-07T04:20:09;99178.72;;;3.74;100.00
21086;BME280;34247;50.064;19.970;2023-04-07T04:21:25;99188.97;;;3.80;99.86
21086;BME280;34247;50.064;19.970;2023-04-07T04:22:57;99183.13;;;3.73;100.00
21086;BME280;34247;50.064;19.970;2023-04-07T04:24:06;99179.72;;;3.71;100.00
21086;BME280;34247;50.064;19.970;2023-04-07T04:25:34;99181.47;;;3.71;100.00
21086;BME280;34247;50.064;19.970;2023-04-07T04:26:42;99181.53;;;3.69;100.00
21086;BME280;34247;50.064;19.970;2023-04-07T04:27:57;99176.66;;;3.60;100.00
21086;BME280;34247;50.064;19.970;2023-04-07T04:29:06;99162.59;;;3.63;100.00
21086;BME280;34247;50.064;19.970;2023-04-07T04:30:18;99146.84;;;3.63;100.00
21086;BME280;34247;50.064;19.970;2023-04-07T04:31:37;99133.50;;;3.67;100.00
21086;BME280;34247;50.064;19.970;2023-04-07T04:32:45;99115.97;;;3.68;100.00
21086;BME280;34247;50.064;19.970;2023-04-07T04:33:52;99102.13;;;3.64;100.00
21086;BME280;34247;50.064;19.970;2023-04-07T04:35:12;99109.03;;;3.67;100.00
21086;BME280;34247;50.064;19.970;2023-04-07T04:36:26;99123.06;;;3.66;100.00
21086;BME280;34247;50.064;19.970;2023-04-07T04:37:33;99145.94;;;3.62;100.00
21086;BME280;34247;50.064;19.970;2023-04-07T04:38:38;99161.66;;;3.64;100.00
21086;BME280;34247;50.064;19.970;2023-04-07T04:39:47;99173.19;;;3.59;100.00
21086;BME280;34247;50.064;19.970;2023-04-07T04:40:52;99178.13;;;3.67;100.00
21086;BME280;34247;50.064;19.970;2023-04-07T04:42:04;99182.59;;;3.65;100.00
21086;BME280;34247;50.064;19.970;2023-04-07T04:43:18;99172.59;;;3.53;100.00
21086;BME280;34247;50.064;19.970;2023-04-07T04:44:31;99166.25;;;3.58;100.00
21086;BME280;34247;50.064;19.970;2023-04-07T04:45:46;99169.72;;;3.59;100.00
21086;BME280;34247;50.064;19.970;2023-04-07T04:47:09;99166.16;;;3.60;100.00
21086;BME280;34247;50.064;19.970;2023-04-07T04:48:30;99170.38;;;3.64;100.00
21086;BME280;34247;50.064;19.970;2023-04-07T04:49:45;99177.28;;;3.67;100.00
21086;BME280;34247;50.064;19.970;2023-04-07T04:51:00;99181.53;;;3.69;100.00
21086;BME280;34247;50.064;19.970;2023-04-07T04:52:19;99173.00;;;3.64;100.00
21086;BME280;34247;50.064;19.970;2023-04-07T04:53:26;99178.25;;;3.64;100.00
21086;BME280;34247;50.064;19.970;2023-04-07T04:54:37;99182.44;;;3.68;100.00
21086;BME280;34247;50.064;19.970;2023-04-07T04:55:41;99181.47;;;3.71;100.00
21086;BME280;34247;50.064;19.970;2023-04-07T04:56:49;99184.97;;;3.71;100.00
21086;BME280;34247;50.064;19.970;2023-04-07T04:57:53;99183.03;;;3.75;100.00
21086;BME280;34247;50.064;19.970;2023-04-07T04:58:57;99178.72;;;3.74;100.00
21086;BME280;34247;50.064;19.970;2023-04-07T05:00:02;99180.06;;;3.62;100.00
21086;BME280;34247;50.064;19.970;2023-04-07T05:01:08;99178.34;;;3.63;100.00
21086;BME280;34247;50.064;19.970;2023-04-07T05:02:12;99168.72;;;3.62;100.00
21086;BME280;34247;50.064;19.970;2023-04-07T05:03:19;99173.06;;;3.63;100.00
21086;BME280;34247;50.064;19.970;2023-04-07T05:04:23;99178.00;;;3.70;100.00
21086;BME280;34247;50.064;19.970;2023-04-07T05:05:27;99180.56;;;3.72;100.00
21086;BME280;34247;50.064;19.970;2023-04-07T05:06:31;99191.78;;;3.75;100.00
21086;BME280;34247;50.064;19.970;2023-04-07T05:07:36;99197.84;;;3.77;100.00
21086;BME280;34247;50.064;19.970;2023-04-07T05:08:56;99200.47;;;3.77;100.00
21086;BME280;34247;50.064;19.970;2023-04-07T05:10:25;99203.09;;;3.77;100.00
21086;BME280;34247;50.064;19.970;2023-04-07T05:11:50;99202.16;;;3.78;100.00
21086;BME280;34247;50.064;19.970;2023-04-07T05:13:01;99201.41;;;3.75;100.00
21086;BME280;34247;50.064;19.970;2023-04-07T05:14:19;99200.56;;;3.74;100.00
21086;BME280;34247;50.064;19.970;2023-04-07T05:15:36;99206.81;;;3.72;100.00
21086;BME280;34247;50.064;19.970;2023-04-07T05:16:55;99196.31;;;3.72;100.00
21086;BME280;34247;50.064;19.970;2023-04-07T05:18:35;99189.34;;;3.71;100.00
21086;BME280;34247;50.064;19.970;2023-04-07T05:19:43;99192.09;;;3.68;100.00
21086;BME280;34247;50.064;19.970;2023-04-07T05:20:57;99184.88;;;3.73;100.00
21086;BME280;34247;50.064;19.970;2023-04-07T05:22:22;99186.84;;;3.68;100.00
21086;BME280;34247;50.064;19.970;2023-04-07T05:23:35;99178.38;;;3.61;100.00
21086;BME280;34247;50.064;19.970;2023-04-07T05:24:42;99186.72;;;3.71;100.00
21086;BME280;34247;50.064;19.970;2023-04-07T05:25:54;99182.13;;;3.76;100.00
21086;BME280;34247;50.064;19.970;2023-04-07T05:27:15;99176.09;;;3.74;100.00
21086;BME280;34247;50.064;19.970;2023-04-07T05:28:30;99173.28;;;3.78;100.00
21086;BME280;34247;50.064;19.970;2023-04-07T05:29:50;99171.63;;;3.76;100.00
21086;BME280;34247;50.064;19.970;2023-04-07T05:31:04;99179.50;;;3.76;100.00
21086;BME280;34247;50.064;19.970;2023-04-07T05:32:30;99181.28;;;3.75;100.00
21086;BME280;34247;50.064;19.970;2023-04-07T05:33:42;99185.03;;;3.70;100.00
21086;BME280;34247;50.064;19.970;2023-04-07T05:34:53;99181.59;;;3.68;100.00
21086;BME280;34247;50.064;19.970;2023-04-07T05:36:01;99184.03;;;3.72;100.00
21086;BME280;34247;50.064;19.970;2023-04-07T05:37:27;99181.72;;;3.65;100.00
21086;BME280;34247;50.064;19.970;2023-04-07T05:38:39;99188.44;;;3.72;100.00
21086;BME280;34247;50.064;19.970;2023-04-07T05:39:52;99185.81;;;3.72;100.00
21086;BME280;34247;50.064;19.970;2023-04-07T05:41:14;99182.25;;;3.73;100.00
21086;BME280;34247;50.064;19.970;2023-04-07T05:42:59;99186.97;;;3.65;100.00
21086;BME280;34247;50.064;19.970;2023-04-07T05:44:04;99192.84;;;3.71;100.00
21086;BME280;34247;50.064;19.970;2023-04-07T05:45:24;99187.34;;;3.77;100.00
21086;BME280;34247;50.064;19.970;2023-04-07T05:46:56;99179.25;;;3.82;100.00
21086;BME280;34247;50.064;19.970;2023-04-07T05:48:07;99192.44;;;3.80;100.00
21086;BME280;34247;50.064;19.970;2023-04-07T05:49:49;99179.31;;;3.80;100.00
21086;BME280;34247;50.064;19.970;2023-04-07T05:50:59;99188.81;;;3.83;100.00
21086;BME280;34247;50.064;19.970;2023-04-07T05:52:16;99187.13;;;3.82;100.00
21086;BME280;34247;50.064;19.970;2023-04-07T05:54:00;99192.50;;;3.79;100.00
21086;BME280;34247;50.064;19.970;2023-04-07T05:55:22;99182.94;;;3.78;100.00
21086;BME280;34247;50.064;19.970;2023-04-07T05:56:42;99189.09;;;3.77;100.00
21086;BME280;34247;50.064;19.970;2023-04-07T05:57:57;99183.78;;;3.78;100.00
21086;BME280;34247;50.064;19.970;2023-04-07T05:59:22;99189.97;;;3.77;100.00
21086;BME280;34247;50.064;19.970;2023-04-07T06:00:40;99186.41;;;3.78;100.00
21086;BME280;34247;50.064;19.970;2023-04-07T06:02:08;99181.16;;;3.78;100.00
21086;BME280;34247;50.064;19.970;2023-04-07T06:04:55;99165.47;;;3.77;100.00
21086;BME280;34247;50.064;19.970;2023-04-07T06:06:04;99166.38;;;3.76;100.00
21086;BME280;34247;50.064;19.970;2023-04-07T06:07:59;99163.75;;;3.76;100.00
21086;BME280;34247;50.064;19.970;2023-04-07T06:09:38;99159.56;;;3.72;100.00
21086;BME280;34247;50.064;19.970;2023-04-07T06:10:44;99172.63;;;3.73;100.00
21086;BME280;34247;50.064;19.970;2023-04-07T06:12:33;99163.81;;;3.74;100.00
21086;BME280;34247;50.064;19.970;2023-04-07T06:13:43;99162.97;;;3.74;100.00
21086;BME280;34247;50.064;19.970;2023-04-07T06:14:55;99170.06;;;3.72;100.00
21086;BME280;34247;50.064;19.970;2023-04-07T06:16:11;99169.91;;;3.75;100.00
21086;BME280;34247;50.064;19.970;2023-04-07T06:17:24;99168.09;;;3.77;100.00
21086;BME280;34247;50.064;19.970;2023-04-07T06:18:40;99168.88;;;3.79;100.00
21086;BME280;34247;50.064;19.970;2023-04-07T06:20:32;99170.25;;;3.67;100.00
21086;BME280;34247;50.064;19.970;2023-04-07T06:21:42;99170.78;;;3.75;100.00
21086;BME280;34247;50.064;19.970;2023-04-07T06:23:01;99170.66;;;3.78;100.00
21086;BME280;34247;50.064;19.970;2023-04-07T06:24:08;99172.22;;;3.82;100.00
21086;BME280;34247;50.064;19.970;2023-04-07T06:25:39;99174.81;;;3.84;100.00
21086;BME280;34247;50.064;19.970;2023-04-07T06:27:16;99186.34;;;3.80;100.00
21086;BME280;34247;50.064;19.970;2023-04-07T06:28:34;99190.56;;;3.84;100.00
21086;BME280;34247;50.064;19.970;2023-04-07T06:29:48;99181.63;;;3.88;100.00
21086;BME280;34247;50.064;19.970;2023-04-07T06:31:05;99190.16;;;3.93;100.00
21086;BME280;34247;50.064;19.970;2023-04-07T06:32:39;99187.66;;;3.90;100.00
21086;BME280;34247;50.064;19.970;2023-04-07T06:36:04;99179.50;;;3.96;100.00
21086;BME280;34247;50.064;19.970;2023-04-07T06:37:15;99171.56;;;3.98;100.00
21086;BME280;34247;50.064;19.970;2023-04-07T06:38:45;99163.13;;;3.91;100.00
21086;BME280;34247;50.064;19.970;2023-04-07T06:40:10;99168.06;;;3.97;100.00
21086;BME280;34247;50.064;19.970;2023-04-07T06:41:43;99175.09;;;3.97;100.00
21086;BME280;34247;50.064;19.970;2023-04-07T06:42:58;99161.78;;;4.01;100.00
21086;BME280;34247;50.064;19.970;2023-04-07T06:44:03;99162.63;;;4.02;100.00
21086;BME280;34247;50.064;19.970;2023-04-07T06:45:33;99160.09;;;4.00;100.00
21086;BME280;34247;50.064;19.970;2023-04-07T06:46:48;99160.94;;;4.01;100.00
21086;BME280;34247;50.064;19.970;2023-04-07T06:48:36;99170.59;;;4.00;100.00
21086;BME280;34247;50.064;19.970;2023-04-07T06:49:45;99167.97;;;4.00;100.00
21086;BME280;34247;50.064;19.970;2023-04-07T06:50:50;99173.16;;;4.02;100.00